Time;durP1;ratioP1;P1;durP2;ratioP2;P2;SDS_P1;SDS_P2;PMS_P1;PMS_P2;Temp;Humidity;BMP_temperature;BMP_pressure;BME280_temperature;BME280_humidity;BME280_pressure;Samples;Min_cycle;Max_cycle;Signal;HPM_P1;HPM_P2
2023/06/03 00:01:41;;;;;;;4.50;3.03;;;22.10;58.10;;;;;;5057965;28;20444;-76
2023/06/03 00:04:14;;;;;;;8.10;3.63;;;22.10;58.10;;;;;;5075677;28;20436;-75
2023/06/03 00:06:44;;;;;;;4.03;3.30;;;22.10;58.20;;;;;;5057933;28;20394;-76
2023/06/03 00:09:13;;;;;;;4.60;3.60;;;22.00;58.20;;;;;;5070962;28;20437;-75
2023/06/03 00:11:39;;;;;;;4.90;3.30;;;22.00;58.20;;;;;;5057831;28;20422;-75
2023/06/03 00:14:06;;;;;;;7.57;3.57;;;22.00;58.30;;;;;;5041286;28;20460;-76
2023/06/03 00:16:34;;;;;;;5.53;3.20;;;22.00;58.30;;;;;;5074551;28;20402;-75
2023/06/03 00:19:05;;;;;;;12.43;3.73;;;22.00;58.30;;;;;;5057637;28;20504;-75
2023/06/03 00:21:36;;;;;;;5.83;3.37;;;22.00;58.40;;;;;;5057764;28;20803;-75
2023/06/03 00:24:02;;;;;;;6.07;4.13;;;22.00;58.40;;;;;;5073847;28;20945;-76
2023/06/03 00:26:28;;;;;;;4.60;4.10;;;22.00;58.50;;;;;;5057705;28;20441;-75
2023/06/03 00:28:57;;;;;;;6.83;3.63;;;21.90;58.40;;;;;;5057158;28;20398;-75
2023/06/03 00:31:25;;;;;;;6.20;3.13;;;21.90;58.50;;;;;;5057507;28;20408;-76
2023/06/03 00:33:52;;;;;;;5.27;3.10;;;21.90;58.50;;;;;;5057369;28;20425;-75
2023/06/03 00:36:18;;;;;;;5.37;3.13;;;21.90;58.50;;;;;;5075160;28;20401;-75
2023/06/03 00:38:46;;;;;;;4.10;3.40;;;21.90;58.60;;;;;;5037971;28;20453;-75
2023/06/03 00:41:15;;;;;;;7.70;4.03;;;21.90;58.60;;;;;;5037287;28;20753;-75
2023/06/03 00:43:44;;;;;;;5.10;3.40;;;21.90;58.70;;;;;;5053706;28;20449;-75
2023/06/03 00:46:10;;;;;;;6.47;3.33;;;21.80;58.60;;;;;;5037489;28;20536;-76
2023/06/03 00:48:38;;;;;;;4.47;3.40;;;21.80;58.70;;;;;;5036939;28;20457;-76
2023/06/03 00:51:06;;;;;;;4.50;3.47;;;21.80;58.70;;;;;;5037014;28;20482;-75
2023/06/03 00:53:32;;;;;;;6.20;3.40;;;21.80;58.80;;;;;;5053542;28;20442;-75
2023/06/03 00:55:59;;;;;;;7.90;3.57;;;21.80;58.80;;;;;;5020651;28;20507;-75
2023/06/03 00:58:28;;;;;;;5.53;3.20;;;21.80;58.80;;;;;;5019308;28;20887;-75
2023/06/03 01:00:57;;;;;;;5.60;3.50;;;21.70;58.80;;;;;;5020993;28;20417;-75
2023/06/03 01:03:27;;;;;;;5.33;3.70;;;21.80;58.90;;;;;;5019134;28;20911;-75
2023/06/03 01:06:24;;;;;;;7.40;3.83;;;21.70;58.90;;;;;;5054670;28;20228;-75
2023/06/03 01:08:51;;;;;;;7.20;3.40;;;21.70;58.90;;;;;;5040145;28;20956;-75
2023/06/03 01:11:35;;;;;;;7.00;3.80;;;21.70;58.90;;;;;;5056804;28;20406;-75
2023/06/03 01:14:36;;;;;;;6.07;3.40;;;21.70;59.00;;;;;;5056498;28;20453;-75
2023/06/03 01:17:09;;;;;;;7.23;4.27;;;21.60;59.00;;;;;;5056831;28;20417;-75
2023/06/03 01:19:50;;;;;;;8.10;3.80;;;21.60;59.10;;;;;;5056968;28;20997;-75
2023/06/03 01:22:24;;;;;;;6.23;3.70;;;21.60;59.10;;;;;;5056535;28;20428;-75
2023/06/03 01:25:04;;;;;;;5.73;3.50;;;21.60;59.10;;;;;;5072980;28;20457;-76
2023/06/03 01:27:30;;;;;;;4.10;3.07;;;21.60;59.20;;;;;;5056557;28;20404;-75
2023/06/03 01:29:56;;;;;;;4.27;3.03;;;21.60;59.20;;;;;;5056683;28;20422;-75
2023/06/03 01:32:22;;;;;;;5.83;3.53;;;21.50;59.20;;;;;;5039913;28;20413;-75
2023/06/03 01:34:54;;;;;;;5.37;3.40;;;21.50;59.20;;;;;;5072794;28;20483;-75
2023/06/03 01:37:21;;;;;;;5.20;4.10;;;21.50;59.30;;;;;;5055453;28;20410;-75
2023/06/03 01:39:49;;;;;;;7.73;3.80;;;21.50;59.30;;;;;;5039452;28;20476;-75
2023/06/03 01:42:18;;;;;;;5.70;3.20;;;21.50;59.30;;;;;;5072687;28;20451;-75
2023/06/03 01:44:44;;;;;;;4.93;3.07;;;21.50;59.40;;;;;;5073912;28;20963;-75
2023/06/03 01:47:13;;;;;;;7.03;3.73;;;21.40;59.20;;;;;;5055863;28;20469;-75
2023/06/03 01:49:40;;;;;;;5.33;3.90;;;21.50;59.40;;;;;;5039351;28;20428;-75
2023/06/03 01:52:08;;;;;;;5.03;2.97;;;21.40;59.30;;;;;;5055912;28;20444;-75
2023/06/03 01:54:39;;;;;;;6.90;3.23;;;21.40;59.40;;;;;;5072120;28;20499;-75
2023/06/03 01:57:10;;;;;;;4.00;3.43;;;21.40;59.40;;;;;;5072053;28;20519;-76
2023/06/03 01:59:38;;;;;;;7.47;3.30;;;21.40;59.50;;;;;;5055400;28;20471;-75
2023/06/03 02:02:08;;;;;;;5.67;3.57;;;21.40;59.50;;;;;;5072376;28;20485;-75
2023/06/03 02:04:37;;;;;;;4.30;3.47;;;21.30;59.40;;;;;;5072254;28;20441;-75
2023/06/03 02:07:03;;;;;;;5.80;3.60;;;21.30;59.50;;;;;;5055383;28;20448;-76
2023/06/03 02:09:31;;;;;;;7.73;3.80;;;21.30;59.50;;;;;;5026913;28;20431;-75
2023/06/03 02:12:03;;;;;;;6.30;3.57;;;21.30;59.50;;;;;;5015809;28;20432;-75
2023/06/03 02:14:33;;;;;;;5.83;3.90;;;21.30;59.60;;;;;;5031533;28;20439;-75
2023/06/03 02:17:00;;;;;;;4.83;4.03;;;21.30;59.70;;;;;;5032295;28;20439;-75
2023/06/03 02:19:28;;;;;;;5.17;3.70;;;21.20;59.60;;;;;;5032039;28;20446;-75
2023/06/03 02:21:58;;;;;;;7.97;3.77;;;21.20;59.70;;;;;;5015771;28;20419;-75
2023/06/03 02:24:31;;;;;;;5.70;3.80;;;21.20;59.70;;;;;;5031418;28;20443;-75
2023/06/03 02:27:01;;;;;;;3.50;3.20;;;21.20;59.70;;;;;;5031828;28;20407;-76
2023/06/03 02:29:30;;;;;;;6.10;3.87;;;21.20;59.70;;;;;;5032315;28;20415;-75
2023/06/03 02:31:57;;;;;;;5.03;3.53;;;21.20;59.80;;;;;;5015650;28;20438;-75
2023/06/03 02:34:23;;;;;;;6.03;3.70;;;21.10;59.70;;;;;;5031692;28;21015;-75
2023/06/03 02:36:52;;;;;;;5.17;2.67;;;21.10;59.70;;;;;;5031686;28;20410;-76
2023/06/03 02:39:19;;;;;;;5.90;3.57;;;21.10;59.80;;;;;;5042194;28;20486;-75
2023/06/03 02:41:48;;;;;;;3.83;3.33;;;21.10;59.80;;;;;;5038375;28;20495;-75
2023/06/03 02:44:22;;;;;;;5.27;4.40;;;21.10;59.80;;;;;;5038725;28;20445;-76
2023/06/03 02:46:50;;;;;;;4.80;3.60;;;21.10;59.90;;;;;;5072869;28;20398;-76
2023/06/03 02:49:16;;;;;;;5.47;3.27;;;21.10;59.90;;;;;;5054839;28;20917;-75
2023/06/03 02:51:42;;;;;;;4.50;3.77;;;21.10;60.00;;;;;;5037561;28;20436;-75
2023/06/03 02:54:08;;;;;;;5.23;3.87;;;21.00;59.90;;;;;;5054666;28;20853;-75
2023/06/03 02:56:40;;;;;;;5.20;3.10;;;21.10;60.10;;;;;;5054893;28;20838;-75
2023/06/03 02:59:06;;;;;;;4.80;3.97;;;21.00;60.00;;;;;;5021549;28;20475;-75
2023/06/03 03:01:32;;;;;;;5.43;3.63;;;21.00;60.00;;;;;;5072358;28;20511;-75
2023/06/03 03:04:01;;;;;;;5.07;3.77;;;21.00;60.10;;;;;;5038149;28;20441;-75
2023/06/03 03:06:27;;;;;;;5.00;3.57;;;21.00;60.20;;;;;;4999364;28;20471;-75
2023/06/03 03:08:53;;;;;;;6.10;4.00;;;21.00;60.30;;;;;;5014509;28;20474;-75
2023/06/03 03:11:27;;;;;;;4.73;3.73;;;20.90;60.20;;;;;;4998706;28;20414;-75
2023/06/03 03:13:54;;;;;;;5.27;4.10;;;20.90;60.20;;;;;;5031090;28;20537;-76
2023/06/03 03:16:24;;;;;;;5.90;3.33;;;20.90;60.30;;;;;;5031329;28;20451;-75
2023/06/03 03:18:51;;;;;;;7.93;3.57;;;20.90;60.30;;;;;;5032292;28;20455;-75
2023/06/03 03:21:21;;;;;;;4.43;3.30;;;20.90;60.30;;;;;;4998581;28;20446;-75
2023/06/03 03:23:46;;;;;;;4.43;3.67;;;20.90;60.40;;;;;;4998015;28;20457;-75
2023/06/03 03:26:13;;;;;;;6.43;3.47;;;20.80;60.30;;;;;;4997580;28;20457;-75
2023/06/03 03:28:46;;;;;;;5.23;3.50;;;20.80;60.40;;;;;;4998321;28;20450;-75
2023/06/03 03:31:14;;;;;;;6.43;3.60;;;20.80;60.40;;;;;;5014270;28;20493;-75
2023/06/03 03:33:43;;;;;;;5.37;3.73;;;20.80;60.40;;;;;;5014805;28;20453;-75
2023/06/03 03:36:13;;;;;;;4.57;3.60;;;20.80;60.50;;;;;;5012000;28;20912;-75
2023/06/03 03:38:43;;;;;;;5.57;4.00;;;20.80;60.60;;;;;;5036960;28;20872;-75
2023/06/03 03:41:11;;;;;;;4.90;3.70;;;20.80;60.60;;;;;;5021528;28;20424;-75
2023/06/03 03:43:37;;;;;;;5.87;3.80;;;20.80;60.70;;;;;;5054050;28;20408;-75
2023/06/03 03:46:09;;;;;;;5.80;3.73;;;20.70;60.70;;;;;;5054432;28;20492;-76
2023/06/03 03:48:36;;;;;;;8.80;3.83;;;20.70;60.70;;;;;;5054471;28;20461;-75
2023/06/03 03:51:03;;;;;;;4.33;3.80;;;20.70;60.80;;;;;;5054299;28;20408;-75
2023/06/03 03:53:41;;;;;;;3.87;3.50;;;20.70;60.80;;;;;;5038549;28;20428;-74
2023/06/03 03:56:19;;;;;;;4.47;3.50;;;20.70;60.90;;;;;;5054485;28;20530;-75
2023/06/03 03:58:55;;;;;;;5.50;4.17;;;20.60;60.90;;;;;;5054315;28;20546;-75
2023/06/03 04:01:28;;;;;;;5.13;4.00;;;20.60;60.90;;;;;;5054771;28;20474;-75
2023/06/03 04:04:05;;;;;;;4.93;3.60;;;20.60;60.90;;;;;;5070891;28;20436;-76
2023/06/03 04:06:39;;;;;;;4.97;3.80;;;20.60;61.00;;;;;;5044392;28;20437;-75
2023/06/03 04:09:13;;;;;;;6.70;4.10;;;20.60;61.10;;;;;;5051800;28;21031;-75
2023/06/03 04:11:42;;;;;;;5.70;3.93;;;20.60;61.10;;;;;;5034180;28;20492;-75
2023/06/03 04:14:15;;;;;;;4.43;3.80;;;20.50;61.10;;;;;;5033483;28;20515;-75
2023/06/03 04:16:51;;;;;;;5.40;3.73;;;20.50;61.10;;;;;;5034153;28;20907;-76
2023/06/03 04:19:32;;;;;;;6.07;4.10;;;20.50;61.10;;;;;;5017378;28;20517;-75
2023/06/03 04:22:08;;;;;;;4.70;3.70;;;20.50;61.20;;;;;;5049187;28;20839;-75
2023/06/03 04:24:35;;;;;;;5.33;3.70;;;20.50;61.30;;;;;;5050706;28;20500;-75
2023/06/03 04:27:09;;;;;;;4.77;3.60;;;20.50;61.30;;;;;;5033702;28;20492;-75
2023/06/03 04:29:36;;;;;;;5.63;3.97;;;20.40;61.20;;;;;;5016839;28;20507;-75
2023/06/03 04:32:03;;;;;;;5.30;3.60;;;20.40;61.30;;;;;;4996840;28;20458;-75
2023/06/03 04:34:32;;;;;;;6.83;3.63;;;20.40;61.30;;;;;;5013600;28;20461;-76
2023/06/03 04:37:02;;;;;;;4.60;3.63;;;20.40;61.30;;;;;;5015271;28;20548;-76
2023/06/03 04:39:28;;;;;;;4.23;3.37;;;20.40;61.30;;;;;;5017893;28;20465;-76
2023/06/03 04:41:55;;;;;;;4.43;3.70;;;20.40;61.40;;;;;;5017539;28;20497;-76
2023/06/03 04:44:23;;;;;;;8.33;4.00;;;20.40;61.40;;;;;;5033629;28;20436;-76
2023/06/03 04:46:50;;;;;;;5.77;3.77;;;20.40;61.40;;;;;;5000972;28;20453;-76
2023/06/03 04:49:16;;;;;;;9.00;3.20;;;20.30;61.30;;;;;;5034793;28;20414;-76
2023/06/03 04:51:45;;;;;;;8.93;3.50;;;20.30;61.30;;;;;;5017560;28;20488;-76
2023/06/03 04:54:12;;;;;;;6.00;3.53;;;20.30;61.30;;;;;;5017227;28;20442;-76
2023/06/03 04:56:45;;;;;;;4.70;2.90;;;20.30;61.40;;;;;;5001431;28;20406;-76
2023/06/03 04:59:13;;;;;;;4.00;3.10;;;20.30;61.40;;;;;;5017392;28;20477;-76
2023/06/03 05:01:48;;;;;;;3.80;3.30;;;20.30;61.40;;;;;;5035026;28;20408;-76
2023/06/03 05:04:22;;;;;;;6.20;3.40;;;20.30;61.40;;;;;;5000736;28;20449;-76
2023/06/03 05:06:49;;;;;;;7.03;3.40;;;20.30;61.50;;;;;;5016630;28;20472;-76
2023/06/03 05:09:20;;;;;;;6.80;3.80;;;20.20;61.30;;;;;;5017230;28;20461;-76
2023/06/03 05:11:49;;;;;;;4.87;3.53;;;20.20;61.30;;;;;;5033815;28;20480;-76
2023/06/03 05:14:15;;;;;;;3.60;3.30;;;20.20;61.70;;;;;;5017320;28;21218;-76
2023/06/03 05:16:43;;;;;;;5.13;3.50;;;20.20;61.30;;;;;;5017138;28;20493;-76
2023/06/03 05:19:12;;;;;;;4.00;3.10;;;20.20;61.30;;;;;;5000698;28;20464;-76
2023/06/03 05:21:43;;;;;;;4.87;3.20;;;20.20;61.30;;;;;;5033430;28;20940;-76
2023/06/03 05:24:13;;;;;;;6.80;3.40;;;20.20;61.30;;;;;;5000406;28;20452;-76
2023/06/03 05:26:40;;;;;;;4.07;3.30;;;20.10;62.00;;;;;;5000621;28;20433;-76
2023/06/03 05:29:06;;;;;;;3.90;2.90;;;20.20;61.30;;;;;;5000711;28;20507;-76
2023/06/03 05:31:32;;;;;;;7.73;3.40;;;20.10;61.20;;;;;;5000622;28;20432;-76
2023/06/03 05:34:02;;;;;;;5.27;3.17;;;20.10;61.20;;;;;;5000746;28;20465;-76
2023/06/03 05:36:28;;;;;;;3.30;3.00;;;20.10;61.20;;;;;;5000657;28;20417;-76
2023/06/03 05:39:03;;;;;;;3.70;3.13;;;20.10;61.20;;;;;;4999960;28;20822;-76
2023/06/03 05:41:29;;;;;;;7.00;3.47;;;20.10;61.10;;;;;;5000046;28;20908;-76
2023/06/03 05:43:58;;;;;;;3.77;3.43;;;20.10;61.10;;;;;;5015821;28;20430;-76
2023/06/03 05:46:24;;;;;;;10.03;3.70;;;20.10;61.10;;;;;;5033213;28;20461;-76
2023/06/03 05:48:52;;;;;;;3.13;2.83;;;20.10;61.10;;;;;;4999492;28;20473;-76
2023/06/03 05:51:22;;;;;;;4.00;3.13;;;20.00;61.00;;;;;;5033099;28;20433;-75
2023/06/03 05:53:50;;;;;;;7.73;3.40;;;20.00;60.90;;;;;;5000258;28;20437;-75
2023/06/03 05:56:26;;;;;;;4.13;2.90;;;20.00;60.90;;;;;;5016262;28;20422;-75
2023/06/03 05:58:58;;;;;;;3.17;2.73;;;20.00;60.80;;;;;;5016199;28;20473;-77
2023/06/03 06:01:26;;;;;;;3.97;3.27;;;20.00;60.80;;;;;;5016322;28;20435;-78
2023/06/03 06:03:52;;;;;;;7.17;3.00;;;20.00;60.80;;;;;;5033496;28;20950;-75
2023/06/03 06:06:18;;;;;;;3.67;2.97;;;20.00;60.70;;;;;;5022553;28;20965;-75
2023/06/03 06:08:49;;;;;;;6.43;3.00;;;20.00;60.70;;;;;;5017294;28;20956;-75
2023/06/03 06:11:16;;;;;;;6.43;2.90;;;20.00;60.80;;;;;;5034525;28;20411;-75
2023/06/03 06:13:44;;;;;;;4.17;2.80;;;20.00;60.70;;;;;;5050159;28;20816;-75
2023/06/03 06:16:13;;;;;;;3.40;2.77;;;20.00;60.70;;;;;;5017742;28;20539;-75
2023/06/03 06:18:39;;;;;;;3.57;2.70;;;20.00;60.70;;;;;;5033693;28;20443;-75
2023/06/03 06:21:11;;;;;;;3.00;2.63;;;19.90;60.50;;;;;;5050104;28;20431;-75
2023/06/03 06:23:43;;;;;;;5.00;2.73;;;19.90;60.40;;;;;;5017248;28;20507;-74
2023/06/03 06:26:13;;;;;;;5.60;3.30;;;19.90;60.40;;;;;;5032114;28;20487;-75
2023/06/03 06:28:40;;;;;;;2.90;2.60;;;19.90;60.30;;;;;;5016635;28;20510;-75
2023/06/03 06:31:13;;;;;;;2.37;2.17;;;19.90;60.30;;;;;;5017069;28;20434;-75
2023/06/03 06:33:49;;;;;;;5.10;3.07;;;19.90;60.20;;;;;;5033517;28;20488;-75
2023/06/03 06:36:18;;;;;;;3.03;2.73;;;19.90;60.00;;;;;;5030260;28;20444;-75
2023/06/03 06:38:47;;;;;;;5.50;2.67;;;19.90;59.90;;;;;;5031450;28;20454;-74
2023/06/03 06:41:15;;;;;;;4.13;2.67;;;19.90;59.90;;;;;;5013105;28;20499;-74
2023/06/03 06:43:45;;;;;;;3.60;2.57;;;19.90;59.80;;;;;;5029068;28;20473;-74
2023/06/03 06:46:11;;;;;;;3.83;2.80;;;19.90;59.70;;;;;;5013160;28;20536;-74
2023/06/03 06:48:42;;;;;;;3.17;2.50;;;19.90;59.70;;;;;;5029414;28;20761;-74
2023/06/03 06:51:10;;;;;;;2.53;2.30;;;19.90;59.70;;;;;;4996946;28;20456;-74
2023/06/03 06:53:36;;;;;;;8.57;3.17;;;19.90;59.70;;;;;;5012914;28;20810;-75
2023/06/03 06:56:10;;;;;;;3.53;2.37;;;19.90;59.60;;;;;;5012869;28;20930;-74
2023/06/03 06:58:40;;;;;;;4.10;2.60;;;19.90;59.60;;;;;;5013285;28;21123;-73
2023/06/03 07:01:07;;;;;;;2.90;2.30;;;19.90;59.60;;;;;;5029359;28;20400;-74
2023/06/03 07:03:37;;;;;;;5.00;2.40;;;19.90;60.20;;;;;;5031714;28;20495;-74
2023/06/03 07:06:04;;;;;;;3.50;2.53;;;19.90;59.50;;;;;;5027569;28;20449;-75
2023/06/03 07:08:40;;;;;;;2.60;2.40;;;19.90;59.50;;;;;;5018061;28;20503;-75
2023/06/03 07:11:07;;;;;;;3.60;2.60;;;19.90;59.40;;;;;;5017862;28;20508;-75
2023/06/03 07:13:59;;;;;;;3.60;2.70;;;19.90;59.40;;;;;;5018306;28;20462;-75
2023/06/03 07:16:26;;;;;;;2.80;2.23;;;19.90;59.30;;;;;;5050927;28;20408;-75
2023/06/03 07:18:56;;;;;;;3.40;2.60;;;19.90;59.20;;;;;;5032940;28;20464;-75
2023/06/03 07:21:32;;;;;;;2.90;2.13;;;19.90;59.10;;;;;;5033728;28;20547;-75
2023/06/03 07:24:01;;;;;;;3.33;1.80;;;20.00;59.10;;;;;;5034178;28;20439;-75
2023/06/03 07:26:32;;;;;;;4.10;2.00;;;20.00;59.10;;;;;;5018820;28;20425;-75
2023/06/03 07:28:58;;;;;;;2.00;1.80;;;20.00;59.00;;;;;;5050806;28;20505;-75
2023/06/03 07:31:24;;;;;;;2.20;2.00;;;20.00;58.90;;;;;;5034333;28;20459;-75
2023/06/03 07:33:55;;;;;;;1.77;1.60;;;20.00;58.80;;;;;;5034044;28;20543;-75
2023/06/03 07:36:27;;;;;;;2.80;2.00;;;20.00;58.80;;;;;;5020409;28;20429;-78
2023/06/03 07:39:19;;;;;;;4.43;2.17;;;20.00;58.80;;;;;;5034493;28;20480;-75
2023/06/03 07:41:56;;;;;;;4.10;1.90;;;20.00;58.60;;;;;;5011422;28;20439;-75
2023/06/03 07:44:43;;;;;;;2.33;1.70;;;20.00;58.50;;;;;;5052279;28;20436;-77
2023/06/03 07:47:17;;;;;;;2.37;1.87;;;20.00;58.50;;;;;;5051288;28;20527;-75
2023/06/03 07:49:47;;;;;;;2.17;1.80;;;20.00;58.50;;;;;;5033811;28;20412;-75
2023/06/03 07:52:17;;;;;;;2.30;1.60;;;20.00;58.40;;;;;;5050320;28;20787;-76
2023/06/03 07:54:44;;;;;;;1.93;1.67;;;20.10;58.50;;;;;;5017281;28;20452;-75
2023/06/03 07:57:13;;;;;;;2.90;1.77;;;20.10;58.40;;;;;;5017145;28;20422;-75
2023/06/03 07:59:48;;;;;;;2.57;1.70;;;20.10;58.30;;;;;;5051314;28;20449;-76
2023/06/03 08:02:15;;;;;;;3.77;2.10;;;20.10;58.20;;;;;;5034110;28;20481;-76
2023/06/03 08:04:44;;;;;;;4.10;2.20;;;20.10;58.20;;;;;;5050585;28;20427;-75
2023/06/03 08:07:13;;;;;;;3.53;2.33;;;20.10;58.20;;;;;;5033653;28;20432;-75
2023/06/03 08:09:40;;;;;;;2.00;1.83;;;20.20;58.20;;;;;;5000917;28;20419;-75
2023/06/03 08:12:08;;;;;;;3.00;1.70;;;20.20;58.20;;;;;;5052813;28;20409;-76
2023/06/03 08:14:38;;;;;;;1.90;1.70;;;20.20;58.20;;;;;;5054099;28;20471;-76
2023/06/03 08:17:18;;;;;;;5.67;1.80;;;20.20;57.90;;;;;;5037535;28;20422;-76
2023/06/03 08:19:48;;;;;;;2.43;1.50;;;20.20;57.30;;;;;;5036981;28;20541;-76
2023/06/03 08:22:41;;;;;;;2.73;1.70;;;20.20;56.70;;;;;;5053561;28;20419;-75
2023/06/03 08:25:08;;;;;;;4.70;1.80;;;20.20;55.90;;;;;;5019615;28;20468;-75
2023/06/03 08:27:36;;;;;;;3.50;1.77;;;20.30;55.70;;;;;;5062927;28;20412;-77
2023/06/03 08:30:03;;;;;;;2.20;1.70;;;20.30;55.20;;;;;;5056195;28;20444;-76
2023/06/03 08:32:34;;;;;;;4.80;1.57;;;20.30;54.60;;;;;;5037399;28;20421;-77
2023/06/03 08:35:00;;;;;;;1.87;1.67;;;20.30;54.40;;;;;;5037314;28;20476;-79
2023/06/03 08:37:27;;;;;;;4.00;1.80;;;20.30;54.10;;;;;;5057386;28;20811;-78
2023/06/03 08:40:05;;;;;;;2.70;1.90;;;20.40;54.10;;;;;;5056664;28;20474;-80
2023/06/03 08:42:41;;;;;;;3.63;1.53;;;20.40;53.90;;;;;;5022266;28;20931;-81
2023/06/03 08:45:14;;;;;;;3.93;1.40;;;20.40;54.20;;;;;;5021454;28;20449;-80
2023/06/03 08:48:06;;;;;;;2.03;1.30;;;20.40;53.40;;;;;;5038779;28;20443;-82
2023/06/03 08:50:34;;;;;;;1.97;1.60;;;20.50;53.60;;;;;;5039581;28;20418;-80
2023/06/03 08:53:08;;;;;;;2.13;1.63;;;20.50;53.00;;;;;;5040055;28;20981;-78
2023/06/03 08:55:38;;;;;;;1.90;1.60;;;20.50;52.80;;;;;;5038768;28;20472;-79
2023/06/03 08:58:16;;;;;;;3.30;1.53;;;20.60;52.80;;;;;;5057723;28;20475;-78
2023/06/03 09:00:46;;;;;;;3.17;1.57;;;20.60;52.90;;;;;;5023249;28;20477;-77
2023/06/03 09:03:16;;;;;;;2.83;1.40;;;20.60;52.80;;;;;;5039347;28;20421;-79
2023/06/03 09:05:43;;;;;;;2.73;1.30;;;20.70;52.80;;;;;;5033218;28;20471;-80
2023/06/03 09:08:12;;;;;;;1.90;1.27;;;20.70;52.40;;;;;;5045896;28;20449;-79
2023/06/03 09:10:38;;;;;;;6.87;1.50;;;20.70;52.40;;;;;;5046779;28;20808;-77
2023/06/03 09:13:07;;;;;;;6.17;1.83;;;20.80;52.00;;;;;;5056629;28;20402;-78
2023/06/03 09:15:36;;;;;;;3.60;1.60;;;20.80;51.80;;;;;;5041139;28;20446;-79
2023/06/03 09:18:02;;;;;;;1.73;1.50;;;20.80;51.40;;;;;;5012730;28;20406;-80
2023/06/03 09:20:31;;;;;;;2.70;1.30;;;20.80;51.30;;;;;;5022921;28;20424;-78
2023/06/03 09:22:57;;;;;;;5.50;1.80;;;20.90;51.30;;;;;;5019401;28;20486;-80
2023/06/03 09:25:23;;;;;;;5.33;1.80;;;20.90;51.70;;;;;;5040622;28;20459;-80
2023/06/03 09:27:49;;;;;;;3.20;1.70;;;21.00;52.00;;;;;;5039186;28;20453;-80
2023/06/03 09:30:16;;;;;;;5.07;2.73;;;21.10;52.10;;;;;;5038631;28;20541;-81
2023/06/03 09:32:45;;;;;;;3.80;2.20;;;21.10;51.50;;;;;;5056216;28;20978;-79
2023/06/03 09:35:12;;;;;;;5.33;2.30;;;21.10;51.30;;;;;;5023094;28;20454;-80
2023/06/03 09:37:40;;;;;;;6.13;2.23;;;21.20;51.20;;;;;;5058077;28;20947;-79
2023/06/03 09:40:26;;;;;;;1.87;1.53;;;21.20;50.90;;;;;;5022738;28;20468;-80
2023/06/03 09:42:52;;;;;;;2.17;1.47;;;21.20;50.30;;;;;;5039272;28;21310;-81
2023/06/03 09:45:27;;;;;;;2.37;1.60;;;21.30;50.20;;;;;;5054820;28;20445;-81
2023/06/03 09:47:56;;;;;;;2.93;1.80;;;21.30;50.50;;;;;;5057625;28;20189;-80
2023/06/03 09:50:23;;;;;;;3.10;1.60;;;21.40;50.60;;;;;;5072788;28;20433;-79
2023/06/03 09:52:52;;;;;;;2.37;1.70;;;21.40;50.30;;;;;;5050171;28;20443;-82
2023/06/03 09:55:18;;;;;;;6.57;1.90;;;21.50;50.30;;;;;;5037908;28;20495;-83
2023/06/03 09:58:02;;;;;;;3.47;1.43;;;21.50;49.90;;;;;;5042843;28;20448;-83
2023/06/03 10:00:31;;;;;;;4.97;2.13;;;21.60;50.00;;;;;;5043297;28;20450;-83
2023/06/03 10:03:11;;;;;;;8.77;1.67;;;21.60;49.90;;;;;;5000468;28;20408;-83
2023/06/03 10:05:37;;;;;;;6.23;1.73;;;21.60;49.70;;;;;;5000761;28;20441;-84
2023/06/03 10:08:05;;;;;;;4.53;1.53;;;21.70;49.60;;;;;;5016600;28;20422;-84
2023/06/03 10:10:35;;;;;;;2.43;2.03;;;21.70;49.60;;;;;;5031148;28;20489;-83
2023/06/03 10:13:21;;;;;;;5.37;1.93;;;21.80;49.90;;;;;;5016261;28;20395;-84
2023/06/03 10:15:52;;;;;;;3.30;1.90;;;21.80;49.70;;;;;;5007069;28;20427;-83
2023/06/03 10:18:37;;;;;;;5.70;2.00;;;21.90;50.30;;;;;;5037618;28;20176;-80
2023/06/03 10:21:08;;;;;;;2.80;2.00;;;22.00;50.90;;;;;;5017547;28;20439;-83
2023/06/03 10:23:38;;;;;;;5.27;1.97;;;22.00;50.20;;;;;;5020922;28;20848;-83
2023/06/03 10:26:06;;;;;;;1.70;1.60;;;22.10;49.90;;;;;;5030796;28;21110;-84
2023/06/03 10:28:32;;;;;;;2.87;1.80;;;22.10;49.40;;;;;;5029599;28;20943;-82
2023/06/03 10:31:00;;;;;;;2.97;1.40;;;22.10;49.40;;;;;;5013670;28;21046;-84
2023/06/03 10:33:31;;;;;;;3.30;1.70;;;22.20;49.40;;;;;;5051519;28;20412;-84
2023/06/03 10:36:02;;;;;;;7.80;2.00;;;22.20;49.30;;;;;;5031933;28;20435;-84
2023/06/03 10:38:28;;;;;;;6.90;1.73;;;22.30;49.60;;;;;;5019209;28;20465;-84
2023/06/03 10:40:54;;;;;;;1.97;1.53;;;22.30;49.20;;;;;;5018783;28;20443;-85
2023/06/03 10:43:22;;;;;;;8.67;2.00;;;22.30;49.20;;;;;;5018930;28;20434;-84
2023/06/03 10:45:56;;;;;;;3.97;1.87;;;22.40;49.10;;;;;;5020714;28;20450;-82
2023/06/03 10:48:23;;;;;;;1.90;1.67;;;22.40;49.10;;;;;;5020157;28;20437;-84
2023/06/03 10:51:20;;;;;;;5.70;1.70;;;22.50;48.80;;;;;;5020347;28;20444;-82
2023/06/03 10:53:55;;;;;;;2.47;1.63;;;22.50;48.90;;;;;;4997984;28;20983;-82
2023/06/03 10:56:51;;;;;;;3.30;2.07;;;22.50;48.80;;;;;;5044132;28;20450;-82
2023/06/03 10:59:19;;;;;;;4.63;2.00;;;22.60;48.10;;;;;;5015949;28;20455;-82
2023/06/03 11:02:08;;;;;;;4.60;1.77;;;22.60;48.20;;;;;;5032223;28;20435;-83
2023/06/03 11:04:36;;;;;;;2.60;1.63;;;22.60;48.40;;;;;;5033098;28;20530;-82
2023/06/03 11:07:06;;;;;;;2.37;1.70;;;22.70;48.40;;;;;;5016116;28;20419;-82
2023/06/03 11:09:37;;;;;;;2.90;1.63;;;22.70;48.40;;;;;;5016222;28;20439;-83
2023/06/03 11:12:13;;;;;;;3.73;1.70;;;22.80;48.70;;;;;;5015632;28;20434;-83
2023/06/03 11:14:51;;;;;;;3.00;2.33;;;22.80;48.50;;;;;;5015034;28;20443;-83
2023/06/03 11:17:20;;;;;;;4.83;2.20;;;22.90;49.40;;;;;;4999944;28;20586;-82
2023/06/03 11:19:50;;;;;;;10.53;2.10;;;23.00;49.60;;;;;;5001399;28;20458;-81
2023/06/03 11:22:28;;;;;;;3.10;1.77;;;23.00;49.60;;;;;;4998503;28;20404;-81
2023/06/03 11:24:58;;;;;;;4.93;2.27;;;23.00;49.60;;;;;;5030843;28;20442;-81
2023/06/03 11:27:28;;;;;;;8.80;2.10;;;23.00;48.70;;;;;;5014990;28;20414;-81
2023/06/03 11:29:56;;;;;;;3.93;1.97;;;23.00;48.50;;;;;;5020446;28;20785;-81
2023/06/03 11:32:30;;;;;;;3.20;1.83;;;23.10;48.80;;;;;;5024375;28;20442;-81
2023/06/03 11:35:05;;;;;;;3.97;1.90;;;23.10;49.30;;;;;;5023713;28;20548;-80
2023/06/03 11:37:43;;;;;;;3.00;1.80;;;23.10;49.60;;;;;;5018017;28;20454;-77
2023/06/03 11:40:14;;;;;;;2.03;1.80;;;23.20;50.00;;;;;;5042905;28;20471;-81
2023/06/03 11:42:47;;;;;;;3.60;1.70;;;23.20;50.00;;;;;;5014589;28;20434;-81
2023/06/03 11:45:25;;;;;;;3.73;2.33;;;23.20;50.30;;;;;;5047579;28;20454;-80
2023/06/03 11:48:03;;;;;;;1.93;1.77;;;23.30;50.60;;;;;;5033441;28;20426;-81
2023/06/03 11:50:46;;;;;;;2.47;2.10;;;23.30;50.60;;;;;;5051928;28;20400;-81
2023/06/03 11:53:37;;;;;;;4.70;2.27;;;23.30;50.80;;;;;;5016705;28;20435;-80
2023/06/03 11:56:09;;;;;;;2.60;1.73;;;23.30;50.90;;;;;;5052899;28;20410;-81
2023/06/03 11:58:39;;;;;;;2.10;1.90;;;23.40;51.00;;;;;;5034402;28;20478;-81
2023/06/03 12:01:17;;;;;;;3.33;2.30;;;23.40;51.10;;;;;;5034432;28;20454;-80
2023/06/03 12:04:00;;;;;;;3.10;2.20;;;23.40;51.00;;;;;;5051458;28;20524;-80
2023/06/03 12:06:36;;;;;;;2.60;2.17;;;23.50;51.20;;;;;;5034770;28;20434;-81
2023/06/03 12:09:05;;;;;;;2.70;2.00;;;23.50;51.30;;;;;;5051217;28;20937;-81
2023/06/03 12:11:37;;;;;;;2.30;1.80;;;23.50;51.30;;;;;;5034283;28;20435;-81
2023/06/03 12:14:05;;;;;;;2.77;1.80;;;23.50;51.20;;;;;;5050755;28;20456;-79
2023/06/03 12:16:38;;;;;;;2.03;1.70;;;23.50;51.30;;;;;;5034537;28;20427;-80
2023/06/03 12:19:06;;;;;;;2.73;2.07;;;23.60;51.30;;;;;;5028043;28;20530;-80
2023/06/03 12:21:39;;;;;;;2.67;1.90;;;23.60;51.30;;;;;;5026961;28;20438;-80
2023/06/03 12:24:09;;;;;;;2.43;1.90;;;23.60;51.30;;;;;;5011857;28;20451;-80
2023/06/03 12:26:44;;;;;;;3.43;2.03;;;23.70;51.40;;;;;;5044649;28;20415;-80
2023/06/03 12:29:15;;;;;;;3.50;2.00;;;23.70;51.50;;;;;;5026200;28;20742;-80
2023/06/03 12:32:00;;;;;;;3.50;2.10;;;23.70;51.50;;;;;;5027641;28;20426;-80
2023/06/03 12:34:36;;;;;;;2.20;1.90;;;23.80;51.60;;;;;;5027866;28;20443;-81
2023/06/03 12:37:06;;;;;;;7.20;1.80;;;23.80;51.60;;;;;;5027114;28;20502;-81
2023/06/03 12:39:49;;;;;;;2.03;1.80;;;23.80;51.60;;;;;;5024113;28;20485;-79
2023/06/03 12:42:33;;;;;;;3.17;2.37;;;23.80;51.70;;;;;;5023305;28;20974;-80
2023/06/03 12:45:02;;;;;;;4.47;2.27;;;23.80;51.70;;;;;;5020290;28;20553;-77
2023/06/03 12:47:29;;;;;;;2.10;1.90;;;23.90;51.70;;;;;;5020913;28;20422;-78
2023/06/03 12:50:06;;;;;;;3.87;2.30;;;23.90;51.70;;;;;;5039032;28;20399;-80
2023/06/03 12:52:36;;;;;;;25.00;3.13;;;24.00;51.50;;;;;;5018599;28;20498;-77
2023/06/03 12:55:07;;;;;;;21.00;3.50;;;24.00;50.30;;;;;;5038241;28;20777;-78
2023/06/03 12:57:39;;;;;;;14.83;2.50;;;24.00;50.00;;;;;;5019902;28;20424;-79
2023/06/03 13:00:09;;;;;;;7.00;2.60;;;24.00;48.60;;;;;;5020457;28;20455;-79
2023/06/03 13:02:39;;;;;;;9.80;2.27;;;24.10;47.30;;;;;;5036700;28;20815;-79
2023/06/03 13:05:06;;;;;;;4.63;2.30;;;24.10;46.80;;;;;;5037271;28;20514;-78